sensor_id;sensor_type;location;lat;lon;timestamp;P1;durP1;ratioP1;P2;durP2;ratioP2
49972;SDS011;71845;49.798;10.968;2023-09-08T00:02:16;0.10;;;0.10;;
49972;SDS011;71845;49.798;10.968;2023-09-08T00:04:42;0.10;;;0.10;;
49972;SDS011;71845;49.798;10.968;2023-09-08T00:07:09;0.10;;;0.10;;
49972;SDS011;71845;49.798;10.968;2023-09-08T00:09:36;0.10;;;0.10;;
49972;SDS011;71845;49.798;10.968;2023-09-08T00:12:04;0.32;;;0.20;;
49972;SDS011;71845;49.798;10.968;2023-09-08T00:14:33;0.10;;;0.10;;
49972;SDS011;71845;49.798;10.968;2023-09-08T00:17:00;0.10;;;0.10;;
49972;SDS011;71845;49.798;10.968;2023-09-08T00:19:27;0.10;;;0.10;;
49972;SDS011;71845;49.798;10.968;2023-09-08T00:21:54;0.45;;;0.22;;
49972;SDS011;71845;49.798;10.968;2023-09-08T00:24:20;0.10;;;0.10;;
49972;SDS011;71845;49.798;10.968;2023-09-08T00:26:47;0.10;;;0.10;;
49972;SDS011;71845;49.798;10.968;2023-09-08T00:29:15;0.10;;;0.10;;
49972;SDS011;71845;49.798;10.968;2023-09-08T00:31:41;0.17;;;0.17;;
49972;SDS011;71845;49.798;10.968;2023-09-08T00:34:08;0.10;;;0.10;;
49972;SDS011;71845;49.798;10.968;2023-09-08T00:36:34;0.10;;;0.10;;
49972;SDS011;71845;49.798;10.968;2023-09-08T00:39:02;0.10;;;0.10;;
49972;SDS011;71845;49.798;10.968;2023-09-08T00:41:29;0.13;;;0.13;;
49972;SDS011;71845;49.798;10.968;2023-09-08T00:43:55;0.10;;;0.10;;
49972;SDS011;71845;49.798;10.968;2023-09-08T00:46:23;0.13;;;0.13;;
49972;SDS011;71845;49.798;10.968;2023-09-08T00:48:52;0.20;;;0.20;;
49972;SDS011;71845;49.798;10.968;2023-09-08T00:51:19;0.10;;;0.10;;
49972;SDS011;71845;49.798;10.968;2023-09-08T00:53:46;0.20;;;0.20;;
49972;SDS011;71845;49.798;10.968;2023-09-08T00:56:13;0.10;;;0.10;;
49972;SDS011;71845;49.798;10.968;2023-09-08T00:58:40;0.10;;;0.10;;
49972;SDS011;71845;49.798;10.968;2023-09-08T01:01:06;0.10;;;0.10;;
49972;SDS011;71845;49.798;10.968;2023-09-08T01:03:34;0.20;;;0.20;;
49972;SDS011;71845;49.798;10.968;2023-09-08T01:06:01;0.10;;;0.10;;
49972;SDS011;71845;49.798;10.968;2023-09-08T01:08:28;0.10;;;0.10;;
49972;SDS011;71845;49.798;10.968;2023-09-08T01:10:56;0.10;;;0.10;;
49972;SDS011;71845;49.798;10.968;2023-09-08T01:13:23;0.10;;;0.10;;
49972;SDS011;71845;49.798;10.968;2023-09-08T01:15:52;0.10;;;0.10;;
49972;SDS011;71845;49.798;10.968;2023-09-08T01:18:18;0.10;;;0.10;;
49972;SDS011;71845;49.798;10.968;2023-09-08T01:23:40;0.10;;;0.10;;
49972;SDS011;71845;49.798;10.968;2023-09-08T01:26:28;0.20;;;0.20;;
49972;SDS011;71845;49.798;10.968;2023-09-08T01:29:00;0.25;;;0.20;;
49972;SDS011;71845;49.798;10.968;2023-09-08T01:31:30;0.10;;;0.10;;
49972;SDS011;71845;49.798;10.968;2023-09-08T01:33:56;0.10;;;0.10;;
49972;SDS011;71845;49.798;10.968;2023-09-08T01:36:23;1.90;;;0.30;;
49972;SDS011;71845;49.798;10.968;2023-09-08T01:38:51;0.10;;;0.10;;
49972;SDS011;71845;49.798;10.968;2023-09-08T01:41:17;0.10;;;0.10;;
49972;SDS011;71845;49.798;10.968;2023-09-08T01:43:48;0.10;;;0.10;;
49972;SDS011;71845;49.798;10.968;2023-09-08T01:46:15;0.10;;;0.10;;
49972;SDS011;71845;49.798;10.968;2023-09-08T01:48:41;0.10;;;0.10;;
49972;SDS011;71845;49.798;10.968;2023-09-08T01:51:08;0.10;;;0.10;;
49972;SDS011;71845;49.798;10.968;2023-09-08T01:53:35;0.10;;;0.10;;
49972;SDS011;71845;49.798;10.968;2023-09-08T01:56:01;0.10;;;0.10;;
49972;SDS011;71845;49.798;10.968;2023-09-08T01:58:28;0.10;;;0.10;;
49972;SDS011;71845;49.798;10.968;2023-09-08T02:01:00;0.10;;;0.10;;
49972;SDS011;71845;49.798;10.968;2023-09-08T02:03:30;0.10;;;0.10;;
49972;SDS011;71845;49.798;10.968;2023-09-08T02:05:57;0.10;;;0.10;;
49972;SDS011;71845;49.798;10.968;2023-09-08T02:08:24;0.20;;;0.20;;
49972;SDS011;71845;49.798;10.968;2023-09-08T02:10:50;0.10;;;0.10;;
49972;SDS011;71845;49.798;10.968;2023-09-08T02:13:18;0.10;;;0.10;;
49972;SDS011;71845;49.798;10.968;2023-09-08T02:15:44;0.10;;;0.10;;
49972;SDS011;71845;49.798;10.968;2023-09-08T02:18:12;0.10;;;0.10;;
49972;SDS011;71845;49.798;10.968;2023-09-08T02:20:40;0.10;;;0.10;;
49972;SDS011;71845;49.798;10.968;2023-09-08T02:23:06;0.10;;;0.10;;
49972;SDS011;71845;49.798;10.968;2023-09-08T02:25:33;0.15;;;0.15;;
49972;SDS011;71845;49.798;10.968;2023-09-08T02:28:00;0.10;;;0.10;;
49972;SDS011;71845;49.798;10.968;2023-09-08T02:30:26;0.10;;;0.10;;
49972;SDS011;71845;49.798;10.968;2023-09-08T02:32:53;0.20;;;0.20;;
49972;SDS011;71845;49.798;10.968;2023-09-08T02:35:21;0.10;;;0.10;;
49972;SDS011;71845;49.798;10.968;2023-09-08T02:37:48;0.10;;;0.10;;
49972;SDS011;71845;49.798;10.968;2023-09-08T02:40:14;0.20;;;0.20;;
49972;SDS011;71845;49.798;10.968;2023-09-08T02:42:41;0.10;;;0.10;;
49972;SDS011;71845;49.798;10.968;2023-09-08T02:45:08;0.10;;;0.10;;
49972;SDS011;71845;49.798;10.968;2023-09-08T02:47:35;0.10;;;0.10;;
49972;SDS011;71845;49.798;10.968;2023-09-08T02:50:02;0.10;;;0.10;;
49972;SDS011;71845;49.798;10.968;2023-09-08T02:52:31;0.10;;;0.10;;
49972;SDS011;71845;49.798;10.968;2023-09-08T02:54:57;0.20;;;0.20;;
49972;SDS011;71845;49.798;10.968;2023-09-08T02:57:24;0.10;;;0.10;;
49972;SDS011;71845;49.798;10.968;2023-09-08T02:59:51;0.20;;;0.20;;
49972;SDS011;71845;49.798;10.968;2023-09-08T03:02:17;0.10;;;0.10;;
49972;SDS011;71845;49.798;10.968;2023-09-08T03:04:44;0.10;;;0.10;;
49972;SDS011;71845;49.798;10.968;2023-09-08T03:07:11;0.10;;;0.10;;
49972;SDS011;71845;49.798;10.968;2023-09-08T03:09:39;0.10;;;0.10;;
49972;SDS011;71845;49.798;10.968;2023-09-08T03:12:08;0.10;;;0.10;;
49972;SDS011;71845;49.798;10.968;2023-09-08T03:14:34;0.10;;;0.10;;
49972;SDS011;71845;49.798;10.968;2023-09-08T03:17:01;0.10;;;0.10;;
49972;SDS011;71845;49.798;10.968;2023-09-08T03:19:27;0.20;;;0.20;;
49972;SDS011;71845;49.798;10.968;2023-09-08T03:21:54;0.10;;;0.10;;
49972;SDS011;71845;49.798;10.968;2023-09-08T03:24:20;0.10;;;0.10;;
49972;SDS011;71845;49.798;10.968;2023-09-08T03:26:48;0.10;;;0.10;;
49972;SDS011;71845;49.798;10.968;2023-09-08T03:29:15;0.10;;;0.10;;
49972;SDS011;71845;49.798;10.968;2023-09-08T03:31:41;0.10;;;0.10;;
49972;SDS011;71845;49.798;10.968;2023-09-08T03:34:08;0.10;;;0.10;;
49972;SDS011;71845;49.798;10.968;2023-09-08T03:36:35;0.10;;;0.10;;
49972;SDS011;71845;49.798;10.968;2023-09-08T03:39:01;0.15;;;0.15;;
49972;SDS011;71845;49.798;10.968;2023-09-08T03:41:28;0.10;;;0.10;;
49972;SDS011;71845;49.798;10.968;2023-09-08T03:43:56;0.10;;;0.10;;
49972;SDS011;71845;49.798;10.968;2023-09-08T03:46:24;0.10;;;0.10;;
49972;SDS011;71845;49.798;10.968;2023-09-08T03:48:50;0.10;;;0.10;;
49972;SDS011;71845;49.798;10.968;2023-09-08T03:51:23;0.10;;;0.10;;
49972;SDS011;71845;49.798;10.968;2023-09-08T03:53:50;0.10;;;0.10;;
49972;SDS011;71845;49.798;10.968;2023-09-08T03:56:17;0.10;;;0.10;;
49972;SDS011;71845;49.798;10.968;2023-09-08T03:58:45;0.10;;;0.10;;
49972;SDS011;71845;49.798;10.968;2023-09-08T04:01:13;0.10;;;0.10;;
49972;SDS011;71845;49.798;10.968;2023-09-08T04:03:41;0.10;;;0.10;;
49972;SDS011;71845;49.798;10.968;2023-09-08T04:06:07;0.15;;;0.15;;
49972;SDS011;71845;49.798;10.968;2023-09-08T04:08:34;0.10;;;0.10;;
49972;SDS011;71845;49.798;10.968;2023-09-08T04:11:01;0.10;;;0.10;;
49972;SDS011;71845;49.798;10.968;2023-09-08T04:13:28;0.10;;;0.10;;
49972;SDS011;71845;49.798;10.968;2023-09-08T04:15:54;0.10;;;0.10;;
49972;SDS011;71845;49.798;10.968;2023-09-08T04:18:22;0.10;;;0.10;;
49972;SDS011;71845;49.798;10.968;2023-09-08T04:20:52;0.13;;;0.13;;
49972;SDS011;71845;49.798;10.968;2023-09-08T04:23:18;0.13;;;0.13;;
49972;SDS011;71845;49.798;10.968;2023-09-08T04:25:45;0.10;;;0.10;;
49972;SDS011;71845;49.798;10.968;2023-09-08T04:28:12;0.20;;;0.20;;
49972;SDS011;71845;49.798;10.968;2023-09-08T04:30:38;0.10;;;0.10;;
49972;SDS011;71845;49.798;10.968;2023-09-08T04:33:05;0.10;;;0.10;;
49972;SDS011;71845;49.798;10.968;2023-09-08T04:35:33;0.10;;;0.10;;
49972;SDS011;71845;49.798;10.968;2023-09-08T04:38:00;0.10;;;0.10;;
49972;SDS011;71845;49.798;10.968;2023-09-08T04:40:28;0.10;;;0.10;;
49972;SDS011;71845;49.798;10.968;2023-09-08T04:42:56;0.20;;;0.20;;
49972;SDS011;71845;49.798;10.968;2023-09-08T04:45:23;0.10;;;0.10;;
49972;SDS011;71845;49.798;10.968;2023-09-08T04:47:49;0.13;;;0.13;;
49972;SDS011;71845;49.798;10.968;2023-09-08T04:50:16;0.10;;;0.10;;
49972;SDS011;71845;49.798;10.968;2023-09-08T04:52:44;0.17;;;0.17;;
49972;SDS011;71845;49.798;10.968;2023-09-08T04:55:11;0.10;;;0.10;;
49972;SDS011;71845;49.798;10.968;2023-09-08T04:57:37;0.10;;;0.10;;
49972;SDS011;71845;49.798;10.968;2023-09-08T05:00:04;0.10;;;0.10;;
49972;SDS011;71845;49.798;10.968;2023-09-08T05:02:32;0.10;;;0.10;;
49972;SDS011;71845;49.798;10.968;2023-09-08T05:04:59;0.10;;;0.10;;
49972;SDS011;71845;49.798;10.968;2023-09-08T05:07:26;0.10;;;0.10;;
49972;SDS011;71845;49.798;10.968;2023-09-08T05:09:54;0.10;;;0.10;;
49972;SDS011;71845;49.798;10.968;2023-09-08T05:12:20;0.10;;;0.10;;
49972;SDS011;71845;49.798;10.968;2023-09-08T05:14:47;0.10;;;0.10;;
49972;SDS011;71845;49.798;10.968;2023-09-08T05:17:14;0.10;;;0.10;;
49972;SDS011;71845;49.798;10.968;2023-09-08T05:19:40;0.17;;;0.17;;
49972;SDS011;71845;49.798;10.968;2023-09-08T05:22:07;0.10;;;0.10;;
49972;SDS011;71845;49.798;10.968;2023-09-08T05:24:33;0.10;;;0.10;;
49972;SDS011;71845;49.798;10.968;2023-09-08T05:27:06;0.10;;;0.10;;
49972;SDS011;71845;49.798;10.968;2023-09-08T05:29:33;0.10;;;0.10;;
49972;SDS011;71845;49.798;10.968;2023-09-08T05:31:59;0.13;;;0.13;;
49972;SDS011;71845;49.798;10.968;2023-09-08T05:34:26;0.10;;;0.10;;
49972;SDS011;71845;49.798;10.968;2023-09-08T05:36:52;0.10;;;0.10;;
49972;SDS011;71845;49.798;10.968;2023-09-08T05:39:19;0.10;;;0.10;;
49972;SDS011;71845;49.798;10.968;2023-09-08T05:41:45;0.10;;;0.10;;
49972;SDS011;71845;49.798;10.968;2023-09-08T05:44:16;0.20;;;0.20;;
49972;SDS011;71845;49.798;10.968;2023-09-08T05:46:42;0.10;;;0.10;;
49972;SDS011;71845;49.798;10.968;2023-09-08T05:49:09;0.10;;;0.10;;
49972;SDS011;71845;49.798;10.968;2023-09-08T05:51:36;0.10;;;0.10;;
49972;SDS011;71845;49.798;10.968;2023-09-08T05:54:02;0.10;;;0.10;;
49972;SDS011;71845;49.798;10.968;2023-09-08T05:56:31;0.10;;;0.10;;
49972;SDS011;71845;49.798;10.968;2023-09-08T05:58:58;0.13;;;0.13;;
49972;SDS011;71845;49.798;10.968;2023-09-08T06:01:27;0.10;;;0.10;;
49972;SDS011;71845;49.798;10.968;2023-09-08T06:03:54;0.20;;;0.20;;
49972;SDS011;71845;49.798;10.968;2023-09-08T06:06:20;0.20;;;0.20;;
49972;SDS011;71845;49.798;10.968;2023-09-08T06:08:47;0.10;;;0.10;;
49972;SDS011;71845;49.798;10.968;2023-09-08T06:11:15;0.20;;;0.20;;
49972;SDS011;71845;49.798;10.968;2023-09-08T06:13:42;0.15;;;0.15;;
49972;SDS011;71845;49.798;10.968;2023-09-08T06:16:08;0.20;;;0.20;;
49972;SDS011;71845;49.798;10.968;2023-09-08T06:18:36;0.10;;;0.10;;
49972;SDS011;71845;49.798;10.968;2023-09-08T06:21:05;0.20;;;0.20;;
49972;SDS011;71845;49.798;10.968;2023-09-08T06:23:31;0.20;;;0.20;;
49972;SDS011;71845;49.798;10.968;2023-09-08T06:25:59;0.10;;;0.10;;
49972;SDS011;71845;49.798;10.968;2023-09-08T06:28:25;0.20;;;0.20;;
49972;SDS011;71845;49.798;10.968;2023-09-08T06:30:52;0.20;;;0.20;;
49972;SDS011;71845;49.798;10.968;2023-09-08T06:33:19;0.10;;;0.10;;
49972;SDS011;71845;49.798;10.968;2023-09-08T06:35:51;0.20;;;0.20;;
49972;SDS011;71845;49.798;10.968;2023-09-08T06:38:19;0.20;;;0.20;;
49972;SDS011;71845;49.798;10.968;2023-09-08T06:40:45;0.20;;;0.20;;
49972;SDS011;71845;49.798;10.968;2023-09-08T06:43:14;0.20;;;0.20;;
49972;SDS011;71845;49.798;10.968;2023-09-08T06:45:41;0.20;;;0.20;;
49972;SDS011;71845;49.798;10.968;2023-09-08T06:48:07;0.20;;;0.20;;
49972;SDS011;71845;49.798;10.968;2023-09-08T06:50:35;0.20;;;0.20;;
49972;SDS011;71845;49.798;10.968;2023-09-08T06:53:03;0.20;;;0.20;;
49972;SDS011;71845;49.798;10.968;2023-09-08T06:55:32;0.20;;;0.20;;
49972;SDS011;71845;49.798;10.968;2023-09-08T06:57:59;0.20;;;0.20;;
49972;SDS011;71845;49.798;10.968;2023-09-08T07:00:26;0.20;;;0.20;;
49972;SDS011;71845;49.798;10.968;2023-09-08T07:02:53;0.20;;;0.20;;
49972;SDS011;71845;49.798;10.968;2023-09-08T07:05:19;0.25;;;0.25;;
49972;SDS011;71845;49.798;10.968;2023-09-08T07:07:46;0.20;;;0.20;;
49972;SDS011;71845;49.798;10.968;2023-09-08T07:10:14;0.20;;;0.20;;
49972;SDS011;71845;49.798;10.968;2023-09-08T07:12:40;0.20;;;0.20;;
49972;SDS011;71845;49.798;10.968;2023-09-08T07:15:07;0.20;;;0.20;;
49972;SDS011;71845;49.798;10.968;2023-09-08T07:17:35;0.30;;;0.30;;
49972;SDS011;71845;49.798;10.968;2023-09-08T07:20:03;0.30;;;0.30;;
49972;SDS011;71845;49.798;10.968;2023-09-08T07:22:30;0.30;;;0.30;;
49972;SDS011;71845;49.798;10.968;2023-09-08T07:24:57;0.30;;;0.30;;
49972;SDS011;71845;49.798;10.968;2023-09-08T07:27:26;0.30;;;0.30;;
49972;SDS011;71845;49.798;10.968;2023-09-08T07:29:53;0.30;;;0.30;;
49972;SDS011;71845;49.798;10.968;2023-09-08T07:32:19;0.30;;;0.30;;
49972;SDS011;71845;49.798;10.968;2023-09-08T07:34:49;0.30;;;0.30;;
49972;SDS011;71845;49.798;10.968;2023-09-08T07:37:19;0.30;;;0.30;;
49972;SDS011;71845;49.798;10.968;2023-09-08T07:39:46;0.30;;;0.30;;
49972;SDS011;71845;49.798;10.968;2023-09-08T07:42:13;0.30;;;0.30;;
49972;SDS011;71845;49.798;10.968;2023-09-08T07:44:40;0.38;;;0.38;;
49972;SDS011;71845;49.798;10.968;2023-09-08T07:47:07;0.30;;;0.30;;
49972;SDS011;71845;49.798;10.968;2023-09-08T07:49:34;0.30;;;0.30;;
49972;SDS011;71845;49.798;10.968;2023-09-08T07:52:00;0.40;;;0.40;;
49972;SDS011;71845;49.798;10.968;2023-09-08T07:54:29;0.40;;;0.40;;
49972;SDS011;71845;49.798;10.968;2023-09-08T07:56:55;0.30;;;0.30;;
49972;SDS011;71845;49.798;10.968;2023-09-08T07:59:22;0.40;;;0.40;;
49972;SDS011;71845;49.798;10.968;2023-09-08T08:01:50;0.40;;;0.40;;
49972;SDS011;71845;49.798;10.968;2023-09-08T08:04:16;0.40;;;0.40;;
49972;SDS011;71845;49.798;10.968;2023-09-08T08:06:43;0.40;;;0.40;;
49972;SDS011;71845;49.798;10.968;2023-09-08T08:09:11;0.30;;;0.30;;
49972;SDS011;71845;49.798;10.968;2023-09-08T08:11:37;0.40;;;0.40;;
49972;SDS011;71845;49.798;10.968;2023-09-08T08:14:04;0.40;;;0.40;;
49972;SDS011;71845;49.798;10.968;2023-09-08T08:16:31;0.40;;;0.40;;
49972;SDS011;71845;49.798;10.968;2023-09-08T08:18:59;0.40;;;0.40;;
49972;SDS011;71845;49.798;10.968;2023-09-08T08:21:25;0.40;;;0.40;;
49972;SDS011;71845;49.798;10.968;2023-09-08T08:23:52;0.40;;;0.40;;
49972;SDS011;71845;49.798;10.968;2023-09-08T08:26:18;0.30;;;0.30;;
49972;SDS011;71845;49.798;10.968;2023-09-08T08:28:47;0.40;;;0.40;;
49972;SDS011;71845;49.798;10.968;2023-09-08T08:31:14;0.40;;;0.40;;
49972;SDS011;71845;49.798;10.968;2023-09-08T08:33:40;0.40;;;0.40;;
49972;SDS011;71845;49.798;10.968;2023-09-08T08:36:09;0.50;;;0.50;;
49972;SDS011;71845;49.798;10.968;2023-09-08T08:38:35;0.50;;;0.50;;
49972;SDS011;71845;49.798;10.968;2023-09-08T08:41:03;0.45;;;0.45;;
49972;SDS011;71845;49.798;10.968;2023-09-08T08:43:33;0.40;;;0.40;;
49972;SDS011;71845;49.798;10.968;2023-09-08T08:46:01;0.40;;;0.40;;
49972;SDS011;71845;49.798;10.968;2023-09-08T08:48:28;0.50;;;0.50;;
49972;SDS011;71845;49.798;10.968;2023-09-08T08:50:56;0.40;;;0.40;;
49972;SDS011;71845;49.798;10.968;2023-09-08T08:53:26;0.40;;;0.40;;
49972;SDS011;71845;49.798;10.968;2023-09-08T08:55:54;0.50;;;0.50;;
49972;SDS011;71845;49.798;10.968;2023-09-08T08:58:22;0.40;;;0.40;;
49972;SDS011;71845;49.798;10.968;2023-09-08T09:00:52;0.50;;;0.50;;
49972;SDS011;71845;49.798;10.968;2023-09-08T09:03:20;0.40;;;0.40;;
49972;SDS011;71845;49.798;10.968;2023-09-08T09:05:50;0.40;;;0.40;;
49972;SDS011;71845;49.798;10.968;2023-09-08T09:08:17;0.30;;;0.30;;
49972;SDS011;71845;49.798;10.968;2023-09-08T09:10:45;0.40;;;0.40;;
49972;SDS011;71845;49.798;10.968;2023-09-08T09:13:12;0.30;;;0.30;;
49972;SDS011;71845;49.798;10.968;2023-09-08T09:15:38;0.40;;;0.40;;
49972;SDS011;71845;49.798;10.968;2023-09-08T09:18:05;0.40;;;0.40;;
49972;SDS011;71845;49.798;10.968;2023-09-08T09:20:33;0.40;;;0.40;;
49972;SDS011;71845;49.798;10.968;2023-09-08T09:23:00;0.45;;;0.45;;
49972;SDS011;71845;49.798;10.968;2023-09-08T09:25:27;0.50;;;0.50;;
49972;SDS011;71845;49.798;10.968;2023-09-08T09:27:57;0.50;;;0.50;;
49972;SDS011;71845;49.798;10.968;2023-09-08T09:30:25;0.43;;;0.43;;
49972;SDS011;71845;49.798;10.968;2023-09-08T09:33:01;0.40;;;0.40;;
49972;SDS011;71845;49.798;10.968;2023-09-08T09:38:16;0.40;;;0.40;;
49972;SDS011;71845;49.798;10.968;2023-09-08T09:40:43;0.40;;;0.40;;
49972;SDS011;71845;49.798;10.968;2023-09-08T09:43:12;0.40;;;0.40;;
49972;SDS011;71845;49.798;10.968;2023-09-08T09:45:41;0.50;;;0.50;;
49972;SDS011;71845;49.798;10.968;2023-09-08T09:48:08;0.50;;;0.50;;
49972;SDS011;71845;49.798;10.968;2023-09-08T09:50:36;0.40;;;0.40;;
49972;SDS011;71845;49.798;10.968;2023-09-08T09:53:07;0.50;;;0.50;;
49972;SDS011;71845;49.798;10.968;2023-09-08T09:55:36;0.50;;;0.50;;
49972;SDS011;71845;49.798;10.968;2023-09-08T09:58:03;0.50;;;0.50;;
49972;SDS011;71845;49.798;10.968;2023-09-08T10:00:33;0.40;;;0.40;;
49972;SDS011;71845;49.798;10.968;2023-09-08T10:03:02;0.50;;;0.50;;
49972;SDS011;71845;49.798;10.968;2023-09-08T10:05:30;0.50;;;0.50;;
49972;SDS011;71845;49.798;10.968;2023-09-08T10:07:57;0.50;;;0.50;;
49972;SDS011;71845;49.798;10.968;2023-09-08T10:10:25;0.50;;;0.50;;
49972;SDS011;71845;49.798;10.968;2023-09-08T10:12:53;0.50;;;0.50;;
49972;SDS011;71845;49.798;10.968;2023-09-08T10:15:23;0.60;;;0.60;;
49972;SDS011;71845;49.798;10.968;2023-09-08T10:17:53;0.50;;;0.50;;
49972;SDS011;71845;49.798;10.968;2023-09-08T10:20:22;0.50;;;0.50;;
49972;SDS011;71845;49.798;10.968;2023-09-08T10:22:50;0.50;;;0.50;;
49972;SDS011;71845;49.798;10.968;2023-09-08T10:25:24;0.50;;;0.50;;
49972;SDS011;71845;49.798;10.968;2023-09-08T10:27:54;0.50;;;0.50;;
49972;SDS011;71845;49.798;10.968;2023-09-08T10:30:21;0.60;;;0.60;;
49972;SDS011;71845;49.798;10.968;2023-09-08T10:32:49;0.50;;;0.50;;
49972;SDS011;71845;49.798;10.968;2023-09-08T10:35:17;0.50;;;0.50;;
49972;SDS011;71845;49.798;10.968;2023-09-08T10:37:44;0.60;;;0.60;;
49972;SDS011;71845;49.798;10.968;2023-09-08T10:40:21;0.50;;;0.50;;
49972;SDS011;71845;49.798;10.968;2023-09-08T10:42:48;0.60;;;0.60;;
49972;SDS011;71845;49.798;10.968;2023-09-08T10:45:15;0.50;;;0.50;;
49972;SDS011;71845;49.798;10.968;2023-09-08T10:47:55;0.50;;;0.50;;
49972;SDS011;71845;49.798;10.968;2023-09-08T10:50:31;0.50;;;0.50;;
49972;SDS011;71845;49.798;10.968;2023-09-08T10:53:09;0.50;;;0.50;;
49972;SDS011;71845;49.798;10.968;2023-09-08T10:55:39;0.50;;;0.50;;
49972;SDS011;71845;49.798;10.968;2023-09-08T10:58:08;0.50;;;0.50;;
49972;SDS011;71845;49.798;10.968;2023-09-08T11:00:45;0.50;;;0.50;;
49972;SDS011;71845;49.798;10.968;2023-09-08T11:03:13;0.50;;;0.50;;
49972;SDS011;71845;49.798;10.968;2023-09-08T11:05:42;0.60;;;0.60;;
49972;SDS011;71845;49.798;10.968;2023-09-08T11:08:09;0.50;;;0.50;;
49972;SDS011;71845;49.798;10.968;2023-09-08T11:10:36;0.50;;;0.50;;
49972;SDS011;71845;49.798;10.968;2023-09-08T11:13:05;0.40;;;0.40;;
49972;SDS011;71845;49.798;10.968;2023-09-08T11:15:32;0.50;;;0.50;;
49972;SDS011;71845;49.798;10.968;2023-09-08T11:18:04;0.50;;;0.50;;
49972;SDS011;71845;49.798;10.968;2023-09-08T11:20:31;0.50;;;0.50;;
49972;SDS011;71845;49.798;10.968;2023-09-08T11:23:00;0.40;;;0.40;;
49972;SDS011;71845;49.798;10.968;2023-09-08T11:25:27;0.50;;;0.50;;
49972;SDS011;71845;49.798;10.968;2023-09-08T11:27:55;0.40;;;0.40;;
49972;SDS011;71845;49.798;10.968;2023-09-08T11:30:21;0.40;;;0.40;;
49972;SDS011;71845;49.798;10.968;2023-09-08T11:32:48;0.40;;;0.40;;
49972;SDS011;71845;49.798;10.968;2023-09-08T11:35:14;0.40;;;0.40;;
49972;SDS011;71845;49.798;10.968;2023-09-08T11:37:41;0.40;;;0.40;;
49972;SDS011;71845;49.798;10.968;2023-09-08T11:40:10;0.40;;;0.40;;
49972;SDS011;71845;49.798;10.968;2023-09-08T11:42:38;0.30;;;0.30;;
49972;SDS011;71845;49.798;10.968;2023-09-08T11:45:09;0.40;;;0.40;;
49972;SDS011;71845;49.798;10.968;2023-09-08T11:47:39;0.32;;;0.32;;
49972;SDS011;71845;49.798;10.968;2023-09-08T11:50:07;0.38;;;0.38;;
49972;SDS011;71845;49.798;10.968;2023-09-08T11:52:34;0.40;;;0.40;;
49972;SDS011;71845;49.798;10.968;2023-09-08T11:55:01;0.40;;;0.40;;
49972;SDS011;71845;49.798;10.968;2023-09-08T11:57:29;0.35;;;0.35;;
49972;SDS011;71845;49.798;10.968;2023-09-08T11:59:57;0.35;;;0.35;;
49972;SDS011;71845;49.798;10.968;2023-09-08T12:02:25;0.40;;;0.40;;
49972;SDS011;71845;49.798;10.968;2023-09-08T12:04:52;0.40;;;0.40;;
49972;SDS011;71845;49.798;10.968;2023-09-08T12:07:19;0.30;;;0.30;;
49972;SDS011;71845;49.798;10.968;2023-09-08T12:09:46;0.30;;;0.30;;
49972;SDS011;71845;49.798;10.968;2023-09-08T12:12:13;0.30;;;0.30;;
49972;SDS011;71845;49.798;10.968;2023-09-08T12:14:41;0.30;;;0.30;;
49972;SDS011;71845;49.798;10.968;2023-09-08T12:17:09;0.30;;;0.30;;
49972;SDS011;71845;49.798;10.968;2023-09-08T12:19:35;0.30;;;0.30;;
49972;SDS011;71845;49.798;10.968;2023-09-08T12:22:04;0.30;;;0.30;;
49972;SDS011;71845;49.798;10.968;2023-09-08T12:24:56;0.30;;;0.30;;
49972;SDS011;71845;49.798;10.968;2023-09-08T12:27:24;0.30;;;0.30;;
49972;SDS011;71845;49.798;10.968;2023-09-08T12:29:56;0.20;;;0.20;;
49972;SDS011;71845;49.798;10.968;2023-09-08T12:32:23;0.30;;;0.30;;
49972;SDS011;71845;49.798;10.968;2023-09-08T12:34:50;0.30;;;0.30;;
49972;SDS011;71845;49.798;10.968;2023-09-08T12:37:19;0.30;;;0.30;;
49972;SDS011;71845;49.798;10.968;2023-09-08T12:39:46;0.30;;;0.30;;
49972;SDS011;71845;49.798;10.968;2023-09-08T12:42:13;0.20;;;0.20;;
49972;SDS011;71845;49.798;10.968;2023-09-08T12:44:40;0.30;;;0.30;;
49972;SDS011;71845;49.798;10.968;2023-09-08T12:47:09;0.30;;;0.30;;
49972;SDS011;71845;49.798;10.968;2023-09-08T12:49:37;0.30;;;0.30;;
49972;SDS011;71845;49.798;10.968;2023-09-08T12:52:04;0.30;;;0.30;;
49972;SDS011;71845;49.798;10.968;2023-09-08T12:54:31;0.25;;;0.25;;
49972;SDS011;71845;49.798;10.968;2023-09-08T12:56:58;0.20;;;0.20;;
49972;SDS011;71845;49.798;10.968;2023-09-08T12:59:24;0.25;;;0.25;;
49972;SDS011;71845;49.798;10.968;2023-09-08T13:01:52;0.30;;;0.30;;
49972;SDS011;71845;49.798;10.968;2023-09-08T13:04:20;0.20;;;0.20;;
49972;SDS011;71845;49.798;10.968;2023-09-08T13:06:49;0.20;;;0.20;;
49972;SDS011;71845;49.798;10.968;2023-09-08T13:09:15;0.20;;;0.20;;
49972;SDS011;71845;49.798;10.968;2023-09-08T13:11:42;0.30;;;0.30;;
49972;SDS011;71845;49.798;10.968;2023-09-08T13:14:09;0.30;;;0.30;;
49972;SDS011;71845;49.798;10.968;2023-09-08T13:16:36;0.25;;;0.25;;
49972;SDS011;71845;49.798;10.968;2023-09-08T13:19:02;0.20;;;0.20;;
49972;SDS011;71845;49.798;10.968;2023-09-08T13:21:30;0.20;;;0.20;;
49972;SDS011;71845;49.798;10.968;2023-09-08T13:23:56;0.20;;;0.20;;
49972;SDS011;71845;49.798;10.968;2023-09-08T13:26:23;0.20;;;0.20;;
49972;SDS011;71845;49.798;10.968;2023-09-08T13:28:50;0.20;;;0.20;;
49972;SDS011;71845;49.798;10.968;2023-09-08T13:31:18;0.30;;;0.30;;
49972;SDS011;71845;49.798;10.968;2023-09-08T13:33:45;0.20;;;0.20;;
49972;SDS011;71845;49.798;10.968;2023-09-08T13:36:11;0.30;;;0.30;;
49972;SDS011;71845;49.798;10.968;2023-09-08T13:38:39;0.30;;;0.30;;
49972;SDS011;71845;49.798;10.968;2023-09-08T13:41:05;0.30;;;0.30;;
49972;SDS011;71845;49.798;10.968;2023-09-08T13:43:32;0.20;;;0.20;;
49972;SDS011;71845;49.798;10.968;2023-09-08T13:45:58;0.30;;;0.30;;
49972;SDS011;71845;49.798;10.968;2023-09-08T13:48:25;0.20;;;0.20;;
49972;SDS011;71845;49.798;10.968;2023-09-08T13:50:52;0.20;;;0.20;;
49972;SDS011;71845;49.798;10.968;2023-09-08T13:53:18;0.20;;;0.20;;
49972;SDS011;71845;49.798;10.968;2023-09-08T13:55:46;0.20;;;0.20;;
49972;SDS011;71845;49.798;10.968;2023-09-08T13:58:13;0.20;;;0.20;;
49972;SDS011;71845;49.798;10.968;2023-09-08T14:00:42;0.20;;;0.20;;
49972;SDS011;71845;49.798;10.968;2023-09-08T14:03:08;0.20;;;0.20;;
49972;SDS011;71845;49.798;10.968;2023-09-08T14:05:35;0.30;;;0.30;;
49972;SDS011;71845;49.798;10.968;2023-09-08T14:08:01;0.20;;;0.20;;
49972;SDS011;71845;49.798;10.968;2023-09-08T14:10:28;0.20;;;0.20;;
49972;SDS011;71845;49.798;10.968;2023-09-08T14:12:56;0.20;;;0.20;;
49972;SDS011;71845;49.798;10.968;2023-09-08T14:15:24;0.20;;;0.20;;
49972;SDS011;71845;49.798;10.968;2023-09-08T14:17:50;0.20;;;0.20;;
49972;SDS011;71845;49.798;10.968;2023-09-08T14:20:17;0.20;;;0.20;;
49972;SDS011;71845;49.798;10.968;2023-09-08T14:22:44;0.20;;;0.20;;
49972;SDS011;71845;49.798;10.968;2023-09-08T14:25:13;0.20;;;0.20;;
49972;SDS011;71845;49.798;10.968;2023-09-08T14:27:41;0.20;;;0.20;;
49972;SDS011;71845;49.798;10.968;2023-09-08T14:30:09;0.20;;;0.20;;
49972;SDS011;71845;49.798;10.968;2023-09-08T14:32:36;0.20;;;0.20;;
49972;SDS011;71845;49.798;10.968;2023-09-08T14:35:03;0.20;;;0.20;;
49972;SDS011;71845;49.798;10.968;2023-09-08T14:37:29;0.20;;;0.20;;
49972;SDS011;71845;49.798;10.968;2023-09-08T14:39:56;0.20;;;0.20;;
49972;SDS011;71845;49.798;10.968;2023-09-08T14:42:25;0.20;;;0.20;;